createdAt,value
2022-09-20T00:02:55.885Z,100223.75
2022-09-20T00:06:02.065Z,100223.44
2022-09-20T00:09:05.865Z,100230.34
2022-09-20T00:12:09.185Z,100237.53
2022-09-20T00:15:11.777Z,100236.19
2022-09-20T00:18:14.861Z,100238.84
2022-09-20T00:21:19.697Z,100242.03
2022-09-20T00:24:22.673Z,100247.37
2022-09-20T00:27:25.392Z,100247.37
2022-09-20T00:30:28.696Z,100243.13
2022-09-20T00:33:50.024Z,100245.84
2022-09-20T00:36:53.036Z,100253.53
2022-09-20T00:39:55.662Z,100251.72
2022-09-20T00:42:58.894Z,100249.34
2022-09-20T00:46:03.029Z,100249.63
2022-09-20T00:49:17.783Z,100252.81
2022-09-20T00:52:20.737Z,100249.63
2022-09-20T00:55:25.087Z,100246.47
2022-09-20T00:58:29.283Z,100239.03
2022-09-20T01:01:32.840Z,100250.16
2022-09-20T01:04:39.120Z,100246.19
2022-09-20T01:07:44.286Z,100240.06
2022-09-20T01:10:47.404Z,100261.66
2022-09-20T01:13:50.614Z,100244.34
2022-09-20T01:16:56.562Z,100257.63
2022-09-20T01:20:14.251Z,100255.00
2022-09-20T01:23:51.852Z,100245.47
2022-09-20T01:27:07.889Z,100243.06
2022-09-20T01:30:21.928Z,100246.03
2022-09-20T01:33:52.478Z,100250.25
2022-09-20T01:37:05.041Z,100254.75
2022-09-20T01:40:31.854Z,100247.84
2022-09-20T01:43:53.003Z,100247.56
2022-09-20T01:47:19.818Z,100235.59
2022-09-20T01:50:51.067Z,100243.78
2022-09-20T01:54:36.176Z,100243.00
2022-09-20T01:58:03.805Z,100233.44
2022-09-20T02:01:21.782Z,100248.34
2022-09-20T02:04:40.534Z,100243.03
2022-09-20T02:08:13.459Z,100247.81
2022-09-20T02:11:21.540Z,100245.69
2022-09-20T02:14:53.093Z,100236.87
2022-09-20T02:18:29.810Z,100248.09
2022-09-20T02:22:17.782Z,100246.50
2022-09-20T02:25:40.254Z,100253.41
2022-09-20T02:29:20.729Z,100246.00
2022-09-20T02:32:29.528Z,100250.28
2022-09-20T02:36:08.249Z,100252.69
2022-09-20T02:39:47.629Z,100257.75
2022-09-20T02:43:14.762Z,100253.22
2022-09-20T02:46:54.790Z,100259.66
2022-09-20T02:50:16.929Z,100261.00
2022-09-20T02:54:03.366Z,100266.31
2022-09-20T02:57:25.261Z,100259.66
2022-09-20T03:00:53.777Z,100267.13
2022-09-20T03:04:19.737Z,100271.13
2022-09-20T03:07:30.208Z,100274.84
2022-09-20T03:10:47.722Z,100275.91
2022-09-20T03:14:23.237Z,100281.47
2022-09-20T03:17:49.977Z,100282.81
2022-09-20T03:21:26.959Z,100281.22
2022-09-20T03:25:14.806Z,100280.66
2022-09-20T03:28:50.568Z,100281.44
2022-09-20T03:32:05.806Z,100288.09
2022-09-20T03:35:39.645Z,100281.47
2022-09-20T03:38:58.163Z,100293.16
2022-09-20T03:42:29.270Z,100283.84
2022-09-20T03:45:44.012Z,100289.69
2022-09-20T03:49:05.758Z,100290.78
2022-09-20T03:53:14.451Z,100285.97
2022-09-20T03:56:42.698Z,100287.06
2022-09-20T03:59:48.839Z,100280.94
2022-09-20T04:03:19.239Z,100271.37
2022-09-20T04:06:44.158Z,100279.62
2022-09-20T04:10:14.573Z,100279.06
2022-09-20T04:14:14.915Z,100282.00
2022-09-20T04:17:33.549Z,100288.91
2022-09-20T04:20:48.687Z,100280.66
2022-09-20T04:24:22.810Z,100279.59
2022-09-20T04:27:33.401Z,100283.84
2022-09-20T04:30:44.158Z,100282.28
2022-09-20T04:33:51.403Z,100283.31
2022-09-20T04:37:22.922Z,100290.53
2022-09-20T04:41:12.025Z,100296.38
2022-09-20T04:44:47.243Z,100297.44
2022-09-20T04:48:09.035Z,100297.16
2022-09-20T04:51:30.817Z,100293.72
2022-09-20T04:54:52.296Z,100298.78
2022-09-20T04:58:12.409Z,100287.84
2022-09-20T05:02:07.288Z,100292.38
2022-09-20T05:05:45.079Z,100299.81
2022-09-20T05:09:04.222Z,100301.41
2022-09-20T05:12:17.821Z,100295.56
2022-09-20T05:15:59.969Z,100301.41
2022-09-20T05:19:26.542Z,100299.25
2022-09-20T05:22:32.448Z,100307.75
2022-09-20T05:25:41.304Z,100310.34
2022-09-20T05:29:03.682Z,100316.16
2022-09-20T05:32:18.457Z,100329.75
2022-09-20T05:35:41.709Z,100327.84
2022-09-20T05:39:19.121Z,100340.06
2022-09-20T05:42:42.389Z,100347.00
2022-09-20T05:46:03.242Z,100336.28
2022-09-20T05:49:20.342Z,100341.87
2022-09-20T05:52:47.086Z,100343.19
2022-09-20T05:56:22.899Z,100331.66
2022-09-20T06:00:04.492Z,100336.69
2022-09-20T15:21:57.008Z,100336.72
2022-09-20T15:25:02.373Z,100336.63
2022-09-20T15:28:05.257Z,100343.56
2022-09-20T15:31:10.334Z,100346.56
2022-09-20T15:34:14.221Z,100346.25
2022-09-20T15:37:17.354Z,100352.37
2022-09-20T15:40:46.164Z,100365.97
2022-09-20T15:43:50.368Z,100369.94
2022-09-20T15:46:53.749Z,100373.09
2022-09-20T15:50:18.139Z,100383.25
2022-09-20T15:53:22.005Z,100377.66
2022-09-20T15:56:46.958Z,100378.53
2022-09-20T15:59:51.060Z,100376.69
2022-09-20T16:02:54.165Z,100369.25
2022-09-20T16:06:04.128Z,100376.63
2022-09-20T16:09:20.624Z,100369.31
2022-09-20T16:12:48.124Z,100371.00
2022-09-20T16:15:59.939Z,100369.88
2022-09-20T16:19:20.818Z,100366.44
2022-09-20T16:22:24.700Z,100361.09
2022-09-20T16:25:38.182Z,100364.19
2022-09-20T16:28:46.517Z,100372.72
2022-09-20T16:31:51.576Z,100364.69
2022-09-20T16:34:55.312Z,100362.00
2022-09-20T16:38:18.939Z,100367.38
2022-09-20T16:41:26.161Z,100375.75
2022-09-20T16:44:30.323Z,100373.53
2022-09-20T16:47:33.160Z,100378.28
2022-09-20T16:50:57.859Z,100372.72
2022-09-20T16:54:12.766Z,100378.16
2022-09-20T16:57:18.539Z,100376.91
2022-09-20T17:00:22.060Z,100380.00
2022-09-20T17:03:27.268Z,100387.50
2022-09-20T17:06:29.963Z,100390.19
2022-09-20T17:09:33.423Z,100381.38
2022-09-20T17:12:41.943Z,100393.66
2022-09-20T17:15:45.370Z,100394.66
2022-09-20T17:18:55.050Z,100393.78
2022-09-20T17:21:58.126Z,100393.78
2022-09-20T17:25:02.171Z,100403.41
2022-09-20T17:28:09.905Z,100399.16
2022-09-20T17:31:48.733Z,100405.97
2022-09-20T17:35:29.602Z,100402.91
2022-09-20T17:38:34.544Z,100413.84
2022-09-20T17:41:58.239Z,100407.38
2022-09-20T17:45:01.358Z,100414.50
2022-09-20T17:48:24.438Z,100417.47
2022-09-20T17:51:29.506Z,100413.97
2022-09-20T17:54:34.999Z,100422.25
2022-09-20T17:57:37.874Z,100420.44
2022-09-20T18:00:41.671Z,100423.87
2022-09-20T18:03:46.963Z,100437.09
2022-09-20T18:06:54.907Z,100443.25
2022-09-20T18:09:58.150Z,100442.22
2022-09-20T18:13:04.846Z,100445.19
2022-09-20T18:16:11.148Z,100450.22
2022-09-20T18:19:16.207Z,100451.44
2022-09-20T19:28:55.143Z,100484.63
2022-09-20T19:32:21.577Z,100489.19
2022-09-20T19:35:51.630Z,100491.84
2022-09-20T19:39:26.856Z,100488.09
2022-09-20T19:43:09.061Z,100487.31
2022-09-20T19:46:46.786Z,100491.84
2022-09-20T19:49:56.097Z,100493.44
2022-09-20T19:53:05.178Z,100498.50
2022-09-20T19:56:21.790Z,100506.22
2022-09-20T19:59:27.540Z,100502.25
2022-09-20T20:02:50.590Z,100510.22
2022-09-20T20:06:08.520Z,100505.44
2022-09-20T20:09:32.217Z,100509.69
2022-09-20T20:12:49.766Z,100509.69
2022-09-20T20:16:04.546Z,100520.62
2022-09-20T20:19:59.399Z,100515.84
2022-09-20T20:23:56.807Z,100516.34
2022-09-20T20:27:03.511Z,100523.28
2022-09-20T20:30:07.049Z,100524.87
2022-09-20T20:33:15.447Z,100524.63
2022-09-20T20:36:18.575Z,100524.87
2022-09-20T20:39:43.250Z,100532.88
2022-09-20T20:43:02.669Z,100531.81
2022-09-20T20:46:21.027Z,100533.91
2022-09-20T20:49:43.718Z,100533.94
2022-09-20T20:53:06.900Z,100541.38
2022-09-20T20:56:30.845Z,100544.56
2022-09-20T20:59:34.049Z,100542.97
2022-09-20T21:03:01.355Z,100550.97
2022-09-20T21:06:05.078Z,100544.06
2022-09-20T21:09:12.577Z,100544.31
2022-09-20T21:12:27.048Z,100550.16
2022-09-20T21:15:49.818Z,100546.72
2022-09-20T21:18:53.715Z,100546.16
2022-09-20T21:22:16.280Z,100546.19
2022-09-20T21:25:41.371Z,100546.97
